createdAt,value
2022-09-03T00:01:54.785Z,14.6
2022-09-03T00:06:36.187Z,14.6
2022-09-03T00:11:17.450Z,14.3
2022-09-03T00:15:58.758Z,14.3
2022-09-03T00:20:39.962Z,14
2022-09-03T00:25:22.278Z,14
2022-09-03T00:30:04.586Z,13.8
2022-09-03T00:34:46.894Z,13.7
2022-09-03T00:39:29.104Z,13.7
2022-09-03T00:44:11.412Z,13.6
2022-09-03T00:48:53.721Z,13.7
2022-09-03T00:53:35.927Z,13.7
2022-09-03T00:58:18.234Z,13.8
2022-09-03T01:03:00.543Z,13.7
2022-09-03T01:07:42.852Z,13.7
2022-09-03T01:12:25.147Z,13.7
2022-09-03T01:17:07.388Z,13.7
2022-09-03T01:21:48.687Z,13.5
2022-09-03T01:26:30.993Z,13.4
2022-09-03T01:31:13.243Z,13.7
2022-09-03T01:35:55.519Z,13.5
2022-09-03T01:40:37.845Z,13.4
2022-09-03T01:45:20.031Z,13.3
2022-09-03T01:50:02.367Z,13.3
2022-09-03T01:54:43.642Z,13.4
2022-09-03T01:59:24.947Z,13.4
2022-09-03T02:04:06.256Z,13.6
2022-09-03T02:08:47.560Z,13.6
2022-09-03T02:13:29.868Z,13.5
2022-09-03T02:18:12.126Z,13.4
2022-09-03T02:22:54.393Z,13.4
2022-09-03T02:27:36.695Z,13.4
2022-09-03T02:32:18.908Z,13.3
2022-09-03T02:37:01.218Z,13.3
2022-09-03T02:41:43.523Z,13.2
2022-09-03T02:46:25.845Z,13.4
2022-09-03T02:51:08.043Z,13.4
2022-09-03T02:55:50.358Z,13.3
2022-09-03T03:00:32.656Z,13.2
2022-09-03T03:05:14.865Z,13
2022-09-03T03:09:56.172Z,13.1
2022-09-03T03:14:38.475Z,13
2022-09-03T03:19:20.790Z,13
2022-09-03T03:24:02.999Z,12.9
2022-09-03T03:28:45.308Z,12.9
2022-09-03T03:33:27.621Z,12.9
2022-09-03T03:38:09.881Z,12.8
2022-09-03T03:42:51.136Z,12.8
2022-09-03T03:47:32.465Z,12.7
2022-09-03T03:52:14.759Z,12.7
2022-09-03T03:56:57.061Z,12.8
2022-09-03T04:01:38.366Z,12.7
2022-09-03T04:06:19.685Z,12.7
2022-09-03T04:11:01.884Z,12.8
2022-09-03T04:15:44.199Z,12.7
2022-09-03T04:20:26.497Z,12.9
2022-09-03T04:25:08.805Z,12.8
2022-09-03T04:29:51.017Z,13
2022-09-03T04:34:32.328Z,13
2022-09-03T04:39:14.626Z,13
2022-09-03T04:43:56.952Z,13
2022-09-03T04:48:39.148Z,13.1
2022-09-03T04:53:21.455Z,13.2
2022-09-03T04:58:03.765Z,13.2
2022-09-03T05:02:45.972Z,13.3
2022-09-03T05:07:28.279Z,13.2
2022-09-03T05:12:10.633Z,13.5
2022-09-03T05:16:52.807Z,13.7
2022-09-03T05:21:35.116Z,13.6
2022-09-03T05:26:17.423Z,13.9
2022-09-03T05:30:59.737Z,14.2
2022-09-03T05:35:40.946Z,14.2
2022-09-03T05:40:22.250Z,14.1
2022-09-03T05:45:03.556Z,14.2
2022-09-03T05:49:44.868Z,14.2
2022-09-03T05:54:26.183Z,14
2022-09-03T05:59:08.486Z,14.3
2022-09-03T06:03:50.794Z,14.1
2022-09-03T06:08:33.004Z,14.2
2022-09-03T06:13:15.310Z,14.5
2022-09-03T06:17:57.620Z,14.5
2022-09-03T06:22:39.831Z,14.7
2022-09-03T06:27:22.146Z,14.8
2022-09-03T06:32:04.449Z,15
2022-09-03T06:36:46.769Z,15.1
2022-09-03T06:46:11.276Z,15.6
2022-09-03T06:50:53.582Z,15.7
2022-09-03T06:55:34.894Z,16
2022-09-03T07:00:17.098Z,16.2
2022-09-03T07:04:59.414Z,16.7
2022-09-03T07:09:41.757Z,17.1
2022-09-03T07:14:24.034Z,17.2
2022-09-03T07:19:06.257Z,17.3
2022-09-03T07:23:48.547Z,17.4
2022-09-03T07:28:30.808Z,17.6
2022-09-03T07:33:12.062Z,17.9
2022-09-03T07:37:53.373Z,18.1
2022-09-03T07:42:34.680Z,18.6
2022-09-03T07:47:15.988Z,18.9
2022-09-03T07:51:58.305Z,19.6
2022-09-03T07:56:40.605Z,20
2022-09-03T08:01:22.819Z,20.2
2022-09-03T08:06:05.126Z,20.2
2022-09-03T08:10:47.437Z,20.2
2022-09-03T08:15:29.684Z,19.7
2022-09-03T08:20:11.976Z,19.1
2022-09-03T08:24:54.271Z,19.6
2022-09-03T08:29:36.472Z,20.2
2022-09-03T08:34:18.782Z,20.3
2022-09-03T08:39:01.123Z,20.8
2022-09-03T08:43:43.427Z,21
2022-09-03T08:48:24.606Z,21.2
2022-09-03T08:53:06.921Z,21.2
2022-09-03T08:57:49.225Z,21.3
2022-09-03T09:02:31.435Z,21.9
2022-09-03T09:07:13.784Z,22.3
2022-09-03T09:11:56.058Z,22.1
2022-09-03T09:16:38.363Z,22.4
2022-09-03T09:21:19.668Z,22.6
2022-09-03T09:26:01.889Z,23.2
2022-09-03T09:30:43.188Z,23.2
2022-09-03T09:35:25.498Z,24
2022-09-03T09:40:07.803Z,24.8
2022-09-03T09:44:50.038Z,25
2022-09-03T09:49:32.329Z,25.1
2022-09-03T09:54:14.630Z,28
2022-09-03T09:58:56.844Z,29.3
2022-09-03T10:03:39.155Z,28.9
2022-09-03T10:08:21.461Z,26.9
2022-09-03T10:13:03.671Z,27.5
2022-09-03T10:17:45.992Z,27.8
2022-09-03T10:22:28.290Z,27.3
2022-09-03T10:27:10.603Z,27.5
2022-09-03T10:31:51.854Z,26.3
2022-09-03T10:36:34.121Z,25.3
2022-09-03T10:41:16.427Z,25.8
2022-09-03T10:45:58.761Z,25.8
2022-09-03T10:50:40.946Z,24.4
2022-09-03T10:55:23.261Z,24.1
2022-09-03T11:00:04.565Z,25
2022-09-03T11:04:45.874Z,25.8
2022-09-03T11:09:27.206Z,25.3
2022-09-03T11:14:09.487Z,25.6
2022-09-03T11:18:50.717Z,26
2022-09-03T11:23:33.035Z,26.4
2022-09-03T11:28:15.326Z,26.6
2022-09-03T11:32:57.538Z,27.4
2022-09-03T11:37:39.844Z,27.6
2022-09-03T11:42:22.150Z,26.5
2022-09-03T11:47:04.460Z,26.6
2022-09-03T11:51:46.687Z,26.2
2022-09-03T11:56:28.986Z,26.6
2022-09-03T12:01:11.289Z,26.8
2022-09-03T12:05:53.496Z,26
2022-09-03T12:10:35.836Z,25.1
2022-09-03T12:15:18.115Z,26.2
2022-09-03T12:20:00.423Z,27.3
2022-09-03T12:24:41.635Z,30.6
2022-09-03T12:29:23.959Z,29.5
2022-09-03T12:34:06.293Z,30
2022-09-03T12:38:48.563Z,32.2
2022-09-03T12:43:30.775Z,27.9
2022-09-03T12:48:12.082Z,28.1
2022-09-03T12:52:53.395Z,27
2022-09-03T12:57:35.744Z,26.1
2022-09-03T13:02:18.051Z,25.2
2022-09-03T13:07:00.244Z,25.5
2022-09-03T13:11:42.545Z,25.1
2022-09-03T13:16:24.837Z,24.6
2022-09-03T13:21:07.043Z,23.6
2022-09-03T13:25:49.354Z,23.1
2022-09-03T13:30:31.663Z,23
2022-09-03T13:35:13.877Z,22.3
2022-09-03T13:39:56.191Z,21.2
2022-09-03T13:44:38.497Z,21
2022-09-03T13:49:20.804Z,20.9
2022-09-03T13:54:02.012Z,20.8
2022-09-03T13:58:44.321Z,20.8
2022-09-03T14:03:26.629Z,20.8
2022-09-03T14:08:08.854Z,20.8
2022-09-03T14:12:51.152Z,20.8
2022-09-03T14:17:33.466Z,21
2022-09-03T14:22:15.773Z,21.4
2022-09-03T14:26:57.079Z,21.8
2022-09-03T14:31:38.290Z,21.9
2022-09-03T14:36:19.624Z,21.8
2022-09-03T14:41:00.921Z,21.7
2022-09-03T14:45:43.214Z,21.5
2022-09-03T14:50:25.521Z,21.7
2022-09-03T14:55:07.750Z,21.6
2022-09-03T14:59:50.043Z,21.6
2022-09-03T15:04:32.349Z,21.8
2022-09-03T15:09:14.706Z,21.9
2022-09-03T15:13:56.876Z,21.6
2022-09-03T15:18:39.180Z,21.8
2022-09-03T15:23:21.489Z,22
2022-09-03T15:28:03.705Z,22.3
2022-09-03T15:32:46.006Z,21.7
2022-09-03T15:37:28.323Z,21.7
2022-09-03T15:42:09.627Z,21.9
2022-09-03T15:46:51.837Z,21.7
2022-09-03T15:51:34.177Z,21.5
2022-09-03T15:56:16.479Z,21.4
2022-09-03T16:00:58.675Z,21.5
2022-09-03T16:05:40.972Z,21.5
2022-09-03T16:10:23.280Z,21.7
2022-09-03T16:15:04.598Z,21.4
2022-09-03T16:19:45.894Z,21.4
2022-09-03T16:24:27.237Z,21.1
2022-09-03T16:29:08.525Z,21.2
2022-09-03T16:33:49.820Z,21.1
2022-09-03T16:38:31.125Z,21
2022-09-03T16:43:13.329Z,21
2022-09-03T16:47:55.639Z,20.8
2022-09-03T16:52:37.949Z,21
2022-09-03T16:57:20.203Z,20.8
2022-09-03T17:02:02.498Z,20.4
2022-09-03T17:06:44.783Z,19.1
2022-09-03T17:11:26.985Z,18.6
2022-09-03T17:16:09.378Z,18.1
2022-09-03T17:20:51.612Z,17
2022-09-03T17:25:33.943Z,16.4
2022-09-03T17:30:16.126Z,15.4
2022-09-03T17:34:58.431Z,15.2
2022-09-03T17:39:39.739Z,15.5
2022-09-03T17:44:21.945Z,15.5
2022-09-03T17:49:04.257Z,15.4
2022-09-03T17:53:46.564Z,15.6
2022-09-03T17:58:28.874Z,15.8
2022-09-03T18:03:11.100Z,15.8
2022-09-03T18:07:53.395Z,15.9
2022-09-03T18:12:34.700Z,15.8
2022-09-03T18:17:16.013Z,15.8
2022-09-03T18:21:57.322Z,15.9
2022-09-03T18:26:38.621Z,15.9
2022-09-03T18:31:20.838Z,15.8
2022-09-03T18:36:03.157Z,15.9
2022-09-03T18:40:45.467Z,16
2022-09-03T18:45:27.761Z,15.9
2022-09-03T18:50:09.982Z,16
2022-09-03T18:54:52.284Z,15.8
2022-09-03T18:59:34.587Z,15.7
2022-09-03T19:04:16.824Z,15.6
2022-09-03T19:08:59.135Z,15.6
2022-09-03T19:13:41.415Z,15.6
2022-09-03T19:18:23.623Z,15.7
2022-09-03T19:23:05.936Z,15.6
2022-09-03T19:27:47.237Z,15.7
2022-09-03T19:32:29.571Z,15.5
2022-09-03T19:37:11.770Z,15.5
2022-09-03T19:41:54.070Z,15.5
2022-09-03T19:46:36.395Z,15.6
2022-09-03T19:51:18.581Z,15.7
2022-09-03T19:56:00.895Z,15.6
2022-09-03T20:00:42.265Z,15.6
2022-09-03T20:05:23.512Z,15.7
2022-09-03T20:10:04.848Z,15.6
2022-09-03T20:14:46.127Z,15.6
2022-09-03T20:19:27.453Z,15.5
2022-09-03T20:24:08.739Z,15.5
2022-09-03T20:28:51.090Z,15.5
2022-09-03T20:33:33.255Z,15.4
2022-09-03T20:38:15.567Z,15.3
2022-09-03T20:42:57.876Z,15.4
2022-09-03T20:47:40.080Z,15.2
2022-09-03T20:52:22.392Z,15.1
2022-09-03T20:57:04.704Z,15.1
2022-09-03T21:01:47.010Z,15
2022-09-03T21:06:29.219Z,15.2
2022-09-03T21:11:11.536Z,15
2022-09-03T21:15:53.835Z,15
2022-09-03T21:20:36.044Z,14.9
2022-09-03T21:25:17.350Z,15
2022-09-03T21:29:59.664Z,15.1
2022-09-03T21:34:41.970Z,14.9
2022-09-03T21:39:24.181Z,14.7
2022-09-03T21:44:06.533Z,14.7
2022-09-03T21:48:48.809Z,14.7
2022-09-03T21:53:31.019Z,14.8
2022-09-03T21:58:12.370Z,14.6
2022-09-03T22:02:53.620Z,14.5
2022-09-03T22:07:34.929Z,14.6
2022-09-03T22:12:16.236Z,14.7
2022-09-03T22:16:57.573Z,14.5
2022-09-03T22:21:38.851Z,14.5
2022-09-03T22:26:21.177Z,14.4
2022-09-03T22:31:03.502Z,14.5
2022-09-03T22:35:45.683Z,14.4
2022-09-03T22:40:28.009Z,14.2
2022-09-03T22:45:10.299Z,14.1
2022-09-03T22:49:52.504Z,14
2022-09-03T22:54:34.902Z,14
2022-09-03T22:59:17.126Z,13.9
2022-09-03T23:03:59.325Z,13.9
2022-09-03T23:08:41.643Z,14.1
2022-09-03T23:13:23.960Z,13.9
2022-09-03T23:18:06.271Z,13.8
2022-09-03T23:22:47.465Z,13.7
2022-09-03T23:27:29.774Z,13.7
2022-09-03T23:32:12.077Z,13.5
2022-09-03T23:36:54.391Z,13.7
2022-09-03T23:41:36.603Z,13.6
2022-09-03T23:46:18.914Z,13.6
2022-09-03T23:51:01.237Z,13.5
2022-09-03T23:55:43.421Z,13.6
